Terminal Aerodrome Forecast
Issued by NWS El Paso, TX

Home | Current Version | Previous Version | Text Only | Print | Product List | Glossary On
Versions: 1 2 3 4 5 6 7 8 9 10 11 12 13
000
FTUS44 KEPZ 092300
TAFELP
TAF
KELP 092331Z 1000/1024 11007KT P6SM FEW080 SCT250
     FM102000 12007KT P6SM BKN080 BKN200=

USA.gov is the U.S. government's official web portal to all federal, state and local government web resources and services.